Time;durP1;ratioP1;P1;durP2;ratioP2;P2;SDS_P1;SDS_P2;PMS_P1;PMS_P2;Temp;Humidity;BMP_temperature;BMP_pressure;BME280_temperature;BME280_humidity;BME280_pressure;Samples;Min_cycle;Max_cycle;Signal;HPM_P1;HPM_P2
2023/01/23 00:01:10;;;;;;;20.67;11.57;;;;;;;2.27;77.21;99897.56;5072517;28;20025;-82
2023/01/23 00:03:35;;;;;;;22.52;14.73;;;;;;;2.29;76.87;99894.69;5070833;28;20071;-83
2023/01/23 00:06:04;;;;;;;18.15;11.25;;;;;;;2.29;77.02;99895.50;5073215;28;20048;-81
2023/01/23 00:08:31;;;;;;;22.50;12.88;;;;;;;2.31;76.74;99900.72;5072934;28;20043;-81
2023/01/23 00:10:57;;;;;;;20.80;12.70;;;;;;;2.30;76.36;99894.47;5072897;28;20538;-81
2023/01/23 00:13:22;;;;;;;21.98;14.38;;;;;;;2.32;76.81;99905.09;5073584;28;20101;-82
2023/01/23 00:15:48;;;;;;;23.20;14.65;;;;;;;2.31;76.18;99904.25;5073254;28;20095;-83
2023/01/23 00:18:14;;;;;;;24.27;15.82;;;;;;;2.31;76.80;99916.97;5073121;28;20770;-83
2023/01/23 00:20:40;;;;;;;21.58;14.52;;;;;;;2.31;76.92;99920.50;5073081;28;20012;-81
2023/01/23 00:23:07;;;;;;;21.92;15.05;;;;;;;2.30;76.98;99910.72;5073028;28;20085;-82
2023/01/23 00:25:33;;;;;;;25.65;19.70;;;;;;;2.30;76.27;99915.31;5072795;28;20016;-83
2023/01/23 00:27:59;;;;;;;30.05;21.55;;;;;;;2.29;76.38;99924.47;5072870;28;20017;-82
2023/01/23 00:30:25;;;;;;;59.13;41.55;;;;;;;2.28;76.48;99928.22;5072826;28;20082;-82
2023/01/23 00:32:50;;;;;;;54.35;37.72;;;;;;;2.28;76.39;99922.78;5038334;28;20470;-82
2023/01/23 00:35:16;;;;;;;40.55;26.45;;;;;;;2.28;76.48;99929.03;5072705;28;20367;-82
2023/01/23 00:37:41;;;;;;;29.85;18.73;;;;;;;2.27;76.17;99926.53;5072874;28;20020;-83
2023/01/23 00:40:09;;;;;;;18.60;12.07;;;;;;;2.27;77.16;99938.19;5072346;28;20454;-83
2023/01/23 00:42:34;;;;;;;21.73;14.25;;;;;;;2.26;77.09;99930.28;5072319;28;20044;-83
2023/01/23 00:45:00;;;;;;;33.30;23.60;;;;;;;2.26;77.20;99936.53;5072818;28;20024;-81
2023/01/23 00:47:25;;;;;;;39.30;25.40;;;;;;;2.29;76.48;99938.00;5072812;28;20036;-82
2023/01/23 00:49:54;;;;;;;30.17;19.27;;;;;;;2.30;76.71;99945.09;5072557;28;20024;-82
2023/01/23 00:52:19;;;;;;;22.95;14.70;;;;;;;2.30;76.46;99942.38;5072561;28;20020;-82
2023/01/23 00:54:45;;;;;;;23.90;15.95;;;;;;;2.30;76.63;99950.50;5072468;28;20023;-82
2023/01/23 00:57:10;;;;;;;19.55;12.27;;;;;;;2.28;76.91;99953.41;5054729;28;20025;-80
2023/01/23 00:59:36;;;;;;;21.92;15.23;;;;;;;2.27;76.64;99954.44;5072531;28;20059;-81
2023/01/23 01:02:01;;;;;;;20.67;12.70;;;;;;;2.28;76.23;99949.88;5072511;28;20146;-82
2023/01/23 01:04:26;;;;;;;21.80;13.77;;;;;;;2.28;76.49;99952.56;5072426;28;20028;-82
2023/01/23 01:06:52;;;;;;;30.45;18.63;;;;;;;2.28;76.68;99952.56;5072739;28;20025;-82
2023/01/23 01:09:17;;;;;;;29.88;20.48;;;;;;;2.28;76.66;99953.41;5071935;28;20401;-81
2023/01/23 01:11:43;;;;;;;28.00;18.17;;;;;;;2.29;76.12;99957.78;5053351;28;20037;-82
2023/01/23 01:14:09;;;;;;;25.65;16.27;;;;;;;2.29;76.40;99952.34;5072663;28;20108;-81
2023/01/23 01:16:34;;;;;;;19.50;12.40;;;;;;;2.29;76.61;99946.94;5072615;28;20024;-82
2023/01/23 01:18:59;;;;;;;25.35;15.18;;;;;;;2.30;76.47;99948.59;5072470;28;20028;-82
2023/01/23 01:21:25;;;;;;;32.28;19.25;;;;;;;2.32;77.14;99941.13;5072517;28;20530;-81
2023/01/23 01:23:50;;;;;;;43.50;23.80;;;;;;;2.34;77.04;99951.75;5072225;28;20032;-82
2023/01/23 01:26:17;;;;;;;42.67;23.70;;;;;;;2.34;76.24;99954.47;5072357;28;20028;-82
2023/01/23 01:28:42;;;;;;;63.08;30.73;;;;;;;2.34;76.67;99952.59;5054446;28;20028;-83
2023/01/23 01:31:11;;;;;;;66.40;30.77;;;;;;;2.35;76.25;99961.56;5072295;28;20470;-82
2023/01/23 01:33:38;;;;;;;28.95;15.60;;;;;;;2.32;76.21;99964.66;5072189;28;20025;-83
2023/01/23 01:36:08;;;;;;;24.85;13.40;;;;;;;2.29;76.44;99959.66;5072296;28;20108;-82
2023/01/23 01:38:34;;;;;;;31.27;16.42;;;;;;;2.30;76.69;99958.63;5072225;28;20116;-81
2023/01/23 01:40:59;;;;;;;26.52;14.93;;;;;;;2.31;76.94;99952.16;5071990;28;20461;-82
2023/01/23 01:43:26;;;;;;;27.88;14.75;;;;;;;2.32;76.77;99951.13;5071882;28;20119;-82
2023/01/23 01:46:10;;;;;;;36.88;20.77;;;;;;;2.30;76.93;99964.84;5071772;28;20106;-80
2023/01/23 01:48:39;;;;;;;37.30;21.30;;;;;;;2.30;76.23;99964.03;5071705;28;20182;-82
2023/01/23 01:51:15;;;;;;;30.25;18.98;;;;;;;2.29;76.47;99965.06;5071708;28;20078;-81
2023/01/23 01:53:41;;;;;;;25.55;15.43;;;;;;;2.31;77.14;99976.53;5053825;28;20021;-82
2023/01/23 01:56:10;;;;;;;25.73;13.95;;;;;;;2.28;76.52;99974.22;5071725;28;20430;-82
2023/01/23 01:58:36;;;;;;;19.75;11.57;;;;;;;2.26;76.49;99981.72;5071424;28;20027;-82
2023/01/23 02:01:01;;;;;;;20.65;11.57;;;;;;;2.25;77.07;99974.63;5071483;28;20704;-81
2023/01/23 02:03:27;;;;;;;21.77;13.75;;;;;;;2.23;76.36;99980.28;5071268;28;20093;-80
2023/01/23 02:05:52;;;;;;;21.25;12.98;;;;;;;2.24;76.15;99981.94;5053282;28;20123;-82
2023/01/23 02:08:57;;;;;;;22.85;13.07;;;;;;;2.22;76.20;99968.59;5049653;28;20102;-82
2023/01/23 02:11:23;;;;;;;20.17;11.40;;;;;;;2.25;76.93;99967.34;5066857;28;20033;-82
2023/01/23 02:13:48;;;;;;;24.33;13.82;;;;;;;2.26;76.87;99968.19;5051344;28;20106;-82
2023/01/23 02:16:18;;;;;;;23.05;13.23;;;;;;;2.24;76.44;99973.81;5051436;28;20368;-82
2023/01/23 02:18:46;;;;;;;20.08;11.75;;;;;;;2.24;76.63;99971.13;5051293;28;20029;-82
2023/01/23 02:21:14;;;;;;;21.40;12.88;;;;;;;2.25;76.74;99974.63;5051241;28;20356;-81
2023/01/23 02:24:07;;;;;;;18.67;12.02;;;;;;;2.25;76.38;99972.75;5050883;28;20078;-82
2023/01/23 02:26:50;;;;;;;20.10;12.30;;;;;;;2.28;76.74;99979.66;5051206;28;20032;-82
2023/01/23 02:29:18;;;;;;;25.15;13.80;;;;;;;2.29;76.23;99995.66;5050782;28;20032;-81
2023/01/23 02:31:44;;;;;;;23.83;13.05;;;;;;;2.27;76.31;99989.63;5049813;28;20027;-82
2023/01/23 02:34:11;;;;;;;22.05;11.90;;;;;;;2.26;76.41;99982.53;5049836;28;20017;-81
2023/01/23 02:36:39;;;;;;;19.83;11.35;;;;;;;2.23;76.92;99988.41;5051213;28;20021;-82
2023/01/23 02:39:12;;;;;;;18.42;11.32;;;;;;;2.20;76.21;99986.09;5051126;28;20025;-81
2023/01/23 02:41:49;;;;;;;17.90;11.63;;;;;;;2.17;76.35;99986.50;5050960;28;20588;-82
2023/01/23 02:44:30;;;;;;;20.70;11.48;;;;;;;2.17;76.97;99998.13;5051253;28;20556;-83
2023/01/23 02:46:59;;;;;;;17.58;10.90;;;;;;;2.16;76.87;99998.34;5051034;28;20515;-82
2023/01/23 02:49:25;;;;;;;18.10;10.55;;;;;;;2.16;76.53;100003.78;5051046;28;20024;-82
2023/01/23 02:51:52;;;;;;;19.63;10.88;;;;;;;2.14;77.02;100000.44;5051077;28;20029;-82
2023/01/23 02:54:18;;;;;;;17.67;10.45;;;;;;;2.16;76.30;99998.34;5051104;28;20638;-82
2023/01/23 02:56:44;;;;;;;15.68;10.65;;;;;;;2.18;76.52;100001.69;5066291;28;20071;-82
2023/01/23 03:01:54;;;;;;;22.98;13.93;;;;;;;2.19;76.73;100004.19;5050708;28;20095;-82
2023/01/23 03:04:19;;;;;;;20.17;12.05;;;;;;;2.21;76.84;100010.22;5050846;28;20037;-82
2023/01/23 03:06:45;;;;;;;22.38;12.00;;;;;;;2.21;77.22;100004.81;5050911;28;20021;-82
2023/01/23 03:09:14;;;;;;;24.80;13.48;;;;;;;2.23;76.54;100005.44;5049429;28;20045;-82
2023/01/23 03:11:41;;;;;;;20.77;11.57;;;;;;;2.25;76.33;99999.00;5047974;28;20051;-82
2023/01/23 03:14:10;;;;;;;19.88;11.65;;;;;;;2.24;76.49;99995.47;5050084;28;20047;-82
2023/01/23 03:16:36;;;;;;;19.08;10.85;;;;;;;2.25;76.35;100005.25;5049644;28;20482;-82
2023/01/23 03:19:07;;;;;;;18.13;10.77;;;;;;;2.23;76.36;99994.63;5049759;28;20159;-81
2023/01/23 03:21:34;;;;;;;15.90;9.95;;;;;;;2.23;76.80;99989.22;5050165;28;20025;-82
2023/01/23 03:24:02;;;;;;;19.90;11.13;;;;;;;2.25;76.36;100001.72;5049957;28;20064;-82
2023/01/23 03:26:28;;;;;;;19.58;11.43;;;;;;;2.25;76.51;99999.00;5050260;28;20021;-82
2023/01/23 03:31:37;;;;;;;23.15;12.23;;;;;;;2.26;76.56;100004.19;5050711;28;20095;-82
2023/01/23 03:34:03;;;;;;;19.83;11.05;;;;;;;2.25;76.75;100001.72;5050552;28;20068;-81
2023/01/23 03:36:28;;;;;;;18.73;10.98;;;;;;;2.23;76.82;100004.63;5053999;28;20032;-82
2023/01/23 03:41:40;;;;;;;20.85;11.00;;;;;;;2.24;76.45;100006.31;5054055;28;20082;-82
2023/01/23 03:44:07;;;;;;;22.45;11.93;;;;;;;2.25;76.86;100007.94;5053554;28;20544;-82
2023/01/23 03:46:33;;;;;;;23.38;13.32;;;;;;;2.25;76.97;100005.25;5054140;28;20017;-82
2023/01/23 03:48:59;;;;;;;24.63;13.27;;;;;;;2.24;76.49;100003.59;5054190;28;20036;-83
2023/01/23 03:51:24;;;;;;;23.50;12.95;;;;;;;2.22;76.55;100001.06;5054226;28;20558;-82
2023/01/23 03:53:49;;;;;;;24.85;13.63;;;;;;;2.21;76.73;100001.28;5053937;28;20032;-82
2023/01/23 03:56:15;;;;;;;21.40;11.45;;;;;;;2.21;77.06;99995.88;5053940;28;20031;-82
2023/01/23 03:58:40;;;;;;;22.88;12.02;;;;;;;2.21;76.82;100002.13;5053819;28;20075;-83
2023/01/23 04:01:08;;;;;;;21.60;12.05;;;;;;;2.22;77.25;100009.19;5053893;28;20021;-83
2023/01/23 04:03:34;;;;;;;24.65;13.30;;;;;;;2.23;76.50;100012.75;5053475;28;20036;-82
2023/01/23 04:05:59;;;;;;;25.58;14.98;;;;;;;2.21;77.27;100006.72;5053500;28;20021;-83
2023/01/23 04:08:25;;;;;;;30.10;16.40;;;;;;;2.20;76.36;100013.16;5058123;28;20036;-82
2023/01/23 04:10:50;;;;;;;31.85;17.20;;;;;;;2.19;76.56;100017.72;5073971;28;20055;-83
2023/01/23 04:13:16;;;;;;;54.90;23.25;;;;;;;2.20;76.89;100022.09;5073646;28;20020;-82
2023/01/23 04:15:41;;;;;;;141.45;50.40;;;;;;;2.19;76.96;100023.13;5055637;28;20035;-83
2023/01/23 04:18:07;;;;;;;327.85;105.88;;;;;;;2.20;76.82;100022.09;5071781;28;20016;-82
2023/01/23 04:20:32;;;;;;;303.77;89.82;;;;;;;2.23;76.44;100021.69;5073421;28;20024;-82
2023/01/23 04:22:58;;;;;;;346.00;102.55;;;;;;;2.24;77.39;100019.84;5073373;28;20385;-83
2023/01/23 04:25:23;;;;;;;192.18;66.68;;;;;;;2.26;77.14;100019.63;5073432;28;20040;-82
2023/01/23 04:27:48;;;;;;;117.93;51.92;;;;;;;2.25;77.25;100016.06;5073431;28;20024;-83
2023/01/23 04:30:14;;;;;;;99.35;51.17;;;;;;;2.26;76.97;100020.44;5055541;28;20535;-83
2023/01/23 04:32:39;;;;;;;88.13;39.08;;;;;;;2.25;76.62;100018.78;5073332;28;20021;-82
2023/01/23 04:35:05;;;;;;;94.45;50.67;;;;;;;2.27;77.16;100026.72;5073336;28;20027;-83
2023/01/23 04:37:30;;;;;;;113.65;58.92;;;;;;;2.28;76.50;100025.66;5072904;28;20115;-83
2023/01/23 04:39:56;;;;;;;89.22;46.20;;;;;;;2.29;76.62;100041.69;5073305;28;20028;-83
2023/01/23 04:42:21;;;;;;;73.07;35.65;;;;;;;2.29;76.91;100039.00;5073064;28;20056;-83
2023/01/23 04:44:46;;;;;;;68.50;33.63;;;;;;;2.31;77.08;100050.47;5073758;28;20028;-82
2023/01/23 04:47:12;;;;;;;52.25;26.63;;;;;;;2.31;77.15;100061.28;5073502;28;20100;-82
2023/01/23 04:49:37;;;;;;;38.95;20.80;;;;;;;2.31;76.88;100060.47;5073094;28;20390;-82
2023/01/23 04:52:03;;;;;;;47.28;24.27;;;;;;;2.32;76.96;100065.66;5072723;28;20032;-82
2023/01/23 04:54:28;;;;;;;53.90;27.10;;;;;;;2.32;77.44;100068.38;5073100;28;20115;-82
2023/01/23 04:56:54;;;;;;;54.88;26.88;;;;;;;2.32;77.12;100076.50;5072601;28;20063;-82
2023/01/23 04:59:21;;;;;;;46.10;20.40;;;;;;;2.33;76.76;100071.94;5072886;28;20032;-82
2023/01/23 05:01:47;;;;;;;41.60;19.23;;;;;;;2.30;77.21;100058.78;5072856;28;20075;-82
2023/01/23 05:04:12;;;;;;;49.85;23.25;;;;;;;2.30;76.54;100062.31;5072525;28;20032;-82
2023/01/23 05:06:37;;;;;;;44.78;21.40;;;;;;;2.31;77.00;100049.63;5054806;28;20111;-81
2023/01/23 05:09:04;;;;;;;43.67;20.95;;;;;;;2.30;76.60;100054.19;5072035;28;20044;-83
2023/01/23 05:11:30;;;;;;;40.72;19.27;;;;;;;2.28;76.35;100058.16;5072522;28;20028;-82
2023/01/23 05:13:56;;;;;;;35.03;17.98;;;;;;;2.28;76.45;100063.56;5072632;28;20497;-83
2023/01/23 05:16:21;;;;;;;45.00;21.38;;;;;;;2.26;76.94;100061.06;5072451;28;20455;-82
2023/01/23 05:18:46;;;;;;;45.88;22.35;;;;;;;2.26;77.02;100063.75;5072279;28;20029;-83
2023/01/23 05:21:12;;;;;;;40.25;19.95;;;;;;;2.27;77.22;100054.59;5072289;28;20040;-83
2023/01/23 05:23:37;;;;;;;40.25;19.75;;;;;;;2.25;76.43;100053.97;5054098;28;20505;-83
2023/01/23 05:26:02;;;;;;;28.42;16.80;;;;;;;2.20;77.09;100046.47;5072340;28;20025;-83
2023/01/23 05:28:28;;;;;;;28.63;16.02;;;;;;;2.20;76.98;100056.47;5072287;28;20024;-83
2023/01/23 05:30:53;;;;;;;34.63;17.45;;;;;;;2.20;77.30;100048.34;5072450;28;20028;-83
2023/01/23 05:33:19;;;;;;;29.17;16.52;;;;;;;2.19;76.98;100055.63;5072082;28;20111;-83
2023/01/23 05:35:44;;;;;;;30.42;15.48;;;;;;;2.17;77.10;100055.00;5071905;28;20036;-83
2023/01/23 05:38:11;;;;;;;27.13;15.50;;;;;;;2.15;77.17;100067.06;5072166;28;20043;-83
2023/01/23 05:40:37;;;;;;;30.83;15.48;;;;;;;2.16;77.34;100066.84;5072014;28;20031;-83
2023/01/23 05:43:02;;;;;;;36.55;17.27;;;;;;;2.16;77.13;100079.56;5071988;28;20099;-83
2023/01/23 05:45:28;;;;;;;33.78;18.25;;;;;;;2.15;76.75;100069.78;5072271;28;20051;-83
2023/01/23 05:47:54;;;;;;;37.95;18.13;;;;;;;2.16;76.50;100077.69;5072019;28;20052;-83
2023/01/23 05:50:22;;;;;;;38.45;19.70;;;;;;;2.17;76.64;100076.66;5071987;28;20051;-83
2023/01/23 05:52:48;;;;;;;34.13;17.42;;;;;;;2.15;76.76;100076.00;5071863;28;20025;-83
2023/01/23 05:55:13;;;;;;;38.10;18.17;;;;;;;2.16;77.28;100085.81;5071714;28;20032;-83
2023/01/23 05:57:39;;;;;;;37.17;18.15;;;;;;;2.17;77.40;100086.66;5070010;28;20020;-83
2023/01/23 06:00:06;;;;;;;37.88;19.05;;;;;;;2.16;77.36;100082.28;5071748;28;20029;-83
2023/01/23 06:02:33;;;;;;;38.70;19.45;;;;;;;2.15;77.19;100089.53;5071590;28;20024;-83
2023/01/23 06:04:58;;;;;;;35.42;18.13;;;;;;;2.17;77.05;100095.59;5071554;28;20040;-83
2023/01/23 06:07:24;;;;;;;39.22;19.92;;;;;;;2.17;77.10;100102.91;5071649;28;20032;-82
2023/01/23 06:09:49;;;;;;;38.33;18.90;;;;;;;2.16;76.78;100106.63;5071298;28;20041;-82
2023/01/23 06:12:15;;;;;;;39.10;20.33;;;;;;;2.16;77.31;100104.75;5071474;28;20056;-83
2023/01/23 06:14:40;;;;;;;34.78;18.23;;;;;;;2.19;76.98;100108.94;5071204;28;20028;-83
2023/01/23 06:17:07;;;;;;;34.03;17.70;;;;;;;2.19;76.72;100117.88;5071247;28;20036;-83
2023/01/23 06:19:32;;;;;;;38.55;19.48;;;;;;;2.18;76.64;100127.03;5071177;28;20029;-83
2023/01/23 06:21:57;;;;;;;34.58;19.00;;;;;;;2.21;77.42;100133.94;5071215;28;20077;-83
2023/01/23 06:24:23;;;;;;;36.55;19.70;;;;;;;2.20;76.64;100127.69;5071159;28;20036;-82
2023/01/23 06:26:49;;;;;;;35.67;18.75;;;;;;;2.21;77.19;100132.06;5071168;28;20462;-82
2023/01/23 06:29:14;;;;;;;36.03;19.05;;;;;;;2.21;76.95;100136.66;5049549;28;20487;-82
2023/01/23 06:31:40;;;;;;;33.22;18.35;;;;;;;2.23;77.51;100148.13;5051826;28;20036;-82
2023/01/23 06:34:05;;;;;;;38.03;18.95;;;;;;;2.22;77.34;100147.25;5051264;28;20174;-83
2023/01/23 06:36:32;;;;;;;37.75;20.10;;;;;;;2.24;77.49;100157.91;5051143;28;20493;-83
2023/01/23 06:38:58;;;;;;;35.67;18.73;;;;;;;2.22;77.39;100155.38;5061524;28;20029;-83
2023/01/23 06:41:23;;;;;;;34.65;20.08;;;;;;;2.23;77.11;100150.81;5070894;28;20028;-83
2023/01/23 06:43:49;;;;;;;36.90;19.52;;;;;;;2.23;76.75;100154.34;5070916;28;20386;-83
2023/01/23 06:46:14;;;;;;;35.65;19.75;;;;;;;2.20;76.93;100156.63;5070920;28;20035;-84
2023/01/23 06:48:40;;;;;;;33.97;18.25;;;;;;;2.19;77.04;100160.38;5071399;28;20027;-83
2023/01/23 06:51:05;;;;;;;32.63;17.33;;;;;;;2.15;77.15;100168.03;5070840;28;20032;-83
2023/01/23 06:53:31;;;;;;;33.35;16.58;;;;;;;2.12;76.89;100167.63;5070754;28;20035;-83
2023/01/23 06:56:04;;;;;;;34.30;16.95;;;;;;;2.08;77.36;100165.31;5070506;28;20095;-82
2023/01/23 06:58:31;;;;;;;39.60;20.17;;;;;;;2.04;76.96;100169.44;5070777;28;20031;-83
2023/01/23 07:00:56;;;;;;;38.42;22.85;;;;;;;2.01;76.50;100167.13;5070493;28;20081;-83
2023/01/23 07:03:22;;;;;;;35.05;18.40;;;;;;;1.98;77.49;100159.41;5070688;28;20115;-83
2023/01/23 07:05:48;;;;;;;34.20;18.05;;;;;;;1.96;77.06;100169.59;5070656;28;20087;-82
2023/01/23 07:08:13;;;;;;;33.08;17.15;;;;;;;1.97;77.03;100167.72;5070213;28;20060;-80
2023/01/23 07:10:39;;;;;;;30.95;18.13;;;;;;;1.98;77.26;100174.81;5055096;28;20031;-80
2023/01/23 07:13:06;;;;;;;34.42;17.75;;;;;;;1.97;77.06;100181.25;5074777;28;20098;-80
2023/01/23 07:15:32;;;;;;;33.00;17.95;;;;;;;1.95;77.10;100175.22;5074620;28;20026;-81
2023/01/23 07:17:58;;;;;;;37.50;19.02;;;;;;;1.95;77.35;100175.22;5074526;28;20063;-81
2023/01/23 07:20:26;;;;;;;38.63;20.38;;;;;;;1.91;76.86;100170.19;5074729;28;20108;-80
2023/01/23 07:22:52;;;;;;;45.20;21.42;;;;;;;1.92;77.21;100179.97;5074152;28;20105;-81
2023/01/23 07:25:18;;;;;;;43.50;21.40;;;;;;;1.91;77.71;100185.56;5074431;28;20029;-80
2023/01/23 07:27:43;;;;;;;47.28;23.05;;;;;;;1.96;77.25;100193.13;5074554;28;20028;-81
2023/01/23 07:30:09;;;;;;;48.22;23.63;;;;;;;1.98;77.16;100183.75;5073861;28;20036;-79
2023/01/23 07:32:34;;;;;;;39.58;19.90;;;;;;;1.98;77.70;100183.75;5074124;28;20466;-79
2023/01/23 07:35:00;;;;;;;39.58;19.98;;;;;;;1.99;77.92;100180.00;5073572;28;20103;-78
2023/01/23 07:37:25;;;;;;;32.40;17.58;;;;;;;2.00;77.17;100183.56;5072775;28;20033;-78
2023/01/23 07:39:51;;;;;;;34.45;19.23;;;;;;;2.04;77.78;100184.81;5072140;28;20028;-78
2023/01/23 07:42:16;;;;;;;30.92;17.33;;;;;;;2.04;77.19;100191.09;5074376;28;20020;-78
2023/01/23 07:44:41;;;;;;;33.65;17.92;;;;;;;2.07;77.46;100181.72;5074020;28;20069;-79
2023/01/23 07:47:07;;;;;;;31.48;16.73;;;;;;;2.08;77.89;100186.94;5074202;28;20572;-79
2023/01/23 07:49:32;;;;;;;34.53;17.98;;;;;;;2.10;77.29;100184.03;5074514;28;20111;-77
2023/01/23 07:51:57;;;;;;;31.13;16.98;;;;;;;2.10;77.80;100189.44;5074191;28;20032;-78
2023/01/23 07:54:23;;;;;;;30.17;17.10;;;;;;;2.12;77.29;100186.56;5068435;28;20149;-78
2023/01/23 07:56:49;;;;;;;32.83;17.88;;;;;;;2.12;77.56;100187.38;5072200;28;20024;-80
2023/01/23 07:59:16;;;;;;;34.60;17.77;;;;;;;2.14;77.92;100190.72;5067718;28;20051;-77
2023/01/23 08:01:42;;;;;;;32.03;18.20;;;;;;;2.12;77.06;100187.38;5071285;28;20462;-79
2023/01/23 08:04:07;;;;;;;34.90;17.55;;;;;;;2.15;77.92;100187.00;5069648;28;20120;-79
2023/01/23 08:06:33;;;;;;;36.10;18.30;;;;;;;2.19;77.43;100193.69;5071185;28;20123;-79
2023/01/23 08:08:58;;;;;;;32.78;17.17;;;;;;;2.23;77.49;100199.56;5070833;28;20154;-78
2023/01/23 08:11:25;;;;;;;31.63;17.60;;;;;;;2.26;77.59;100191.00;5071587;28;20085;-79
2023/01/23 08:13:51;;;;;;;34.28;18.83;;;;;;;2.30;77.53;100184.16;5067199;28;20532;-80
2023/01/23 08:16:17;;;;;;;29.15;17.27;;;;;;;2.32;77.18;100194.81;5070898;28;20033;-80
2023/01/23 08:18:42;;;;;;;31.88;17.23;;;;;;;2.33;77.36;100197.31;5071643;28;20024;-78
2023/01/23 08:21:08;;;;;;;33.83;17.42;;;;;;;2.36;78.05;100213.16;5071174;28;20090;-78
2023/01/23 08:23:34;;;;;;;29.38;16.63;;;;;;;2.39;77.20;100209.22;5071442;28;20445;-78
2023/01/23 08:26:02;;;;;;;30.02;16.85;;;;;;;2.42;78.03;100219.66;5070292;28;20454;-75
2023/01/23 08:28:27;;;;;;;32.70;17.63;;;;;;;2.43;77.19;100220.50;5052462;28;20025;-76
2023/01/23 08:30:53;;;;;;;31.85;17.85;;;;;;;2.45;77.18;100215.72;5070597;28;20493;-78
2023/01/23 08:33:20;;;;;;;31.00;17.98;;;;;;;2.45;77.45;100218.41;5071374;28;20032;-77
2023/01/23 08:35:50;;;;;;;27.75;16.25;;;;;;;2.42;77.84;100219.66;5070919;28;20482;-77
2023/01/23 08:38:17;;;;;;;30.42;16.75;;;;;;;2.42;77.16;100219.66;5070996;28;20069;-75
2023/01/23 08:40:42;;;;;;;30.55;16.80;;;;;;;2.42;78.00;100218.81;5071272;28;20249;-76
2023/01/23 08:43:09;;;;;;;31.77;16.48;;;;;;;2.43;77.92;100215.06;5070938;28;20054;-79
2023/01/23 08:45:34;;;;;;;32.13;16.70;;;;;;;2.45;77.43;100223.84;5052738;28;20020;-78
2023/01/23 08:48:01;;;;;;;35.85;16.92;;;;;;;2.47;77.92;100221.75;5050566;28;20025;-78
2023/01/23 08:50:27;;;;;;;32.05;16.88;;;;;;;2.47;77.33;100225.28;5070979;28;20098;-78
2023/01/23 08:52:53;;;;;;;31.98;18.77;;;;;;;2.50;78.12;100221.38;5071031;28;20024;-79
2023/01/23 08:55:19;;;;;;;34.55;19.88;;;;;;;2.49;77.82;100220.50;5070611;28;20099;-78
2023/01/23 08:57:44;;;;;;;44.47;24.15;;;;;;;2.50;77.76;100226.78;5070720;28;20159;-78
2023/01/23 09:00:10;;;;;;;37.10;20.88;;;;;;;2.50;77.47;100226.78;5053056;28;20028;-79
2023/01/23 09:02:35;;;;;;;41.67;22.70;;;;;;;2.54;78.09;100233.47;5070344;28;20042;-78
2023/01/23 09:05:01;;;;;;;42.97;25.70;;;;;;;2.56;77.39;100225.13;5070234;28;20035;-78
2023/01/23 09:07:26;;;;;;;45.88;28.20;;;;;;;2.57;77.24;100230.38;5070726;28;20028;-77
2023/01/23 09:09:53;;;;;;;45.85;28.40;;;;;;;2.59;76.98;100230.16;5044236;28;20056;-76
2023/01/23 09:12:19;;;;;;;47.47;27.90;;;;;;;2.59;77.31;100232.88;5067160;28;20045;-77
2023/01/23 09:14:44;;;;;;;48.95;28.13;;;;;;;2.62;77.47;100230.63;5068733;28;20036;-78
2023/01/23 09:17:10;;;;;;;48.15;27.45;;;;;;;2.65;77.68;100224.78;5069604;28;20056;-78
2023/01/23 09:19:35;;;;;;;47.60;25.17;;;;;;;2.66;77.59;100231.88;5069062;28;20036;-79
2023/01/23 09:22:01;;;;;;;42.38;22.58;;;;;;;2.67;77.33;100224.59;5050534;28;20025;-79
2023/01/23 09:24:27;;;;;;;40.92;22.02;;;;;;;2.68;77.83;100220.84;5068012;28;20032;-78
2023/01/23 09:26:52;;;;;;;43.35;23.05;;;;;;;2.70;77.34;100218.75;5068894;28;20028;-79
2023/01/23 09:29:18;;;;;;;37.72;19.70;;;;;;;2.72;76.94;100218.56;5067971;28;20020;-77
2023/01/23 09:31:43;;;;;;;40.63;21.50;;;;;;;2.72;77.35;100221.25;5061216;28;20024;-76
2023/01/23 09:34:08;;;;;;;38.97;20.83;;;;;;;2.71;77.80;100225.00;5066399;28;20016;-78
2023/01/23 09:36:34;;;;;;;39.38;19.85;;;;;;;2.70;77.27;100223.34;5067640;28;20402;-79
2023/01/23 09:39:00;;;;;;;38.72;20.35;;;;;;;2.70;77.09;100221.47;5069041;28;20086;-76
2023/01/23 09:41:27;;;;;;;39.20;20.67;;;;;;;2.71;77.38;100219.59;5065436;28;20041;-83
2023/01/23 09:43:58;;;;;;;32.75;17.98;;;;;;;2.71;77.07;100217.72;5068466;28;20039;-77
2023/01/23 09:46:52;;;;;;;36.10;18.95;;;;;;;2.72;77.70;100213.97;5068194;28;20119;-78
2023/01/23 09:49:29;;;;;;;38.83;19.38;;;;;;;2.72;77.20;100205.00;5044921;28;20155;-82
2023/01/23 09:51:57;;;;;;;36.85;19.92;;;;;;;2.74;77.90;100217.34;5069946;28;20021;-78
2023/01/23 09:54:25;;;;;;;33.50;17.75;;;;;;;2.76;77.46;100209.84;5066061;28;20555;-76
2023/01/23 09:56:51;;;;;;;36.78;18.67;;;;;;;2.81;77.68;100211.94;5050821;28;20106;-76
2023/01/23 09:59:44;;;;;;;35.80;18.88;;;;;;;2.92;78.00;100210.50;5067606;28;20478;-76
2023/01/23 10:02:21;;;;;;;37.90;20.15;;;;;;;2.99;77.50;100208.66;5065256;28;20632;-76
2023/01/23 10:04:48;;;;;;;36.95;19.33;;;;;;;3.05;77.64;100212.47;5066079;28;20153;-77
2023/01/23 10:07:17;;;;;;;38.42;20.15;;;;;;;3.07;77.24;100211.19;5065792;28;20028;-76
2023/01/23 10:09:49;;;;;;;39.42;20.50;;;;;;;3.09;77.46;100205.56;5067547;28;20295;-77
2023/01/23 10:12:54;;;;;;;36.63;20.75;;;;;;;3.12;77.59;100202.44;5069182;28;20112;-78
2023/01/23 10:16:01;;;;;;;39.22;21.60;;;;;;;3.17;77.93;100201.84;5066500;28;20646;-80
2023/01/23 10:18:37;;;;;;;40.72;20.92;;;;;;;3.22;77.52;100211.03;5062172;28;20526;-77
2023/01/23 10:21:35;;;;;;;44.78;21.48;;;;;;;3.20;77.28;100209.56;5068420;28;20016;-77
2023/01/23 10:24:13;;;;;;;46.22;25.52;;;;;;;3.23;77.64;100214.59;5066724;28;20040;-77
2023/01/23 10:26:42;;;;;;;44.88;26.35;;;;;;;3.24;77.50;100208.94;5063936;28;20039;-75
2023/01/23 10:29:29;;;;;;;45.88;23.50;;;;;;;3.26;77.92;100208.75;5067343;28;20024;-72
2023/01/23 10:31:57;;;;;;;42.67;22.55;;;;;;;3.30;77.24;100204.56;5067374;28;20032;-73
2023/01/23 10:34:54;;;;;;;42.30;23.08;;;;;;;3.29;77.86;100208.31;5066892;28;20032;-76
2023/01/23 10:37:38;;;;;;;44.17;23.92;;;;;;;3.29;77.17;100200.19;5054876;28;20413;-80
2023/01/23 10:40:15;;;;;;;47.35;26.38;;;;;;;3.31;77.21;100197.28;5064343;28;20032;-80
2023/01/23 10:42:40;;;;;;;48.53;25.55;;;;;;;3.32;77.90;100197.06;5065487;28;20066;-79
2023/01/23 10:45:14;;;;;;;48.50;25.15;;;;;;;3.33;77.64;100197.94;5066943;28;20051;-78
2023/01/23 10:47:47;;;;;;;43.42;23.45;;;;;;;3.32;77.54;100196.25;5065591;28;20033;-80
2023/01/23 10:50:14;;;;;;;45.08;24.25;;;;;;;3.33;77.06;100203.34;5069872;28;20047;-83
2023/01/23 10:52:42;;;;;;;49.67;26.67;;;;;;;3.31;77.14;100200.00;5062852;28;20093;-77
2023/01/23 10:55:29;;;;;;;54.30;30.40;;;;;;;3.29;77.21;100211.03;5061099;28;20386;-78
2023/01/23 10:58:01;;;;;;;60.55;31.45;;;;;;;3.28;77.22;100203.94;5066390;28;20104;-78
2023/01/23 11:00:36;;;;;;;59.08;30.77;;;;;;;3.27;77.32;100203.13;5065681;28;20068;-77
2023/01/23 11:03:31;;;;;;;45.72;26.83;;;;;;;3.26;77.12;100197.91;5061973;28;20081;-81
2023/01/23 11:06:01;;;;;;;47.20;24.73;;;;;;;3.27;77.30;100203.13;5027051;28;20507;-77
2023/01/23 11:08:39;;;;;;;47.92;27.70;;;;;;;3.25;77.73;100202.50;5065972;28;20028;-78
2023/01/23 11:11:31;;;;;;;52.70;28.83;;;;;;;3.22;77.04;100197.47;5067150;28;20028;-77
2023/01/23 11:14:26;;;;;;;45.45;25.73;;;;;;;3.20;77.46;100191.41;5062165;28;20210;-76
2023/01/23 11:17:01;;;;;;;40.25;22.58;;;;;;;3.21;77.86;100198.50;5044403;28;20505;-78
2023/01/23 11:19:30;;;;;;;43.75;25.10;;;;;;;3.21;77.32;100195.81;5063988;28;20028;-77
2023/01/23 11:22:01;;;;;;;44.20;27.40;;;;;;;3.21;77.30;100193.09;5064995;28;20016;-83
2023/01/23 11:24:29;;;;;;;38.47;22.88;;;;;;;3.20;77.78;100194.13;5049588;28;20133;-76
2023/01/23 11:27:03;;;;;;;39.50;23.25;;;;;;;3.20;77.34;100188.72;5062857;28;20026;-78
2023/01/23 11:29:41;;;;;;;39.40;24.10;;;;;;;3.22;77.51;100193.94;5060592;28;20052;-78
2023/01/23 11:32:11;;;;;;;38.45;22.52;;;;;;;3.22;77.37;100188.53;5062118;28;20044;-77